sensor_id;sensor_type;location;lat;lon;timestamp;temperature;humidity
10300;DHT22;5195;48.562;9.192;2023-10-08T00:01:52;20.00;30.00
10300;DHT22;5195;48.562;9.192;2023-10-08T00:04:28;20.20;30.20
10300;DHT22;5195;48.562;9.192;2023-10-08T00:07:04;20.00;30.60
10300;DHT22;5195;48.562;9.192;2023-10-08T00:09:39;19.60;31.20
10300;DHT22;5195;48.562;9.192;2023-10-08T00:12:14;19.60;32.50
10300;DHT22;5195;48.562;9.192;2023-10-08T00:14:51;19.40;33.30
10300;DHT22;5195;48.562;9.192;2023-10-08T00:17:30;19.40;33.30
10300;DHT22;5195;48.562;9.192;2023-10-08T00:20:05;19.50;33.80
10300;DHT22;5195;48.562;9.192;2023-10-08T00:22:41;19.60;34.10
10300;DHT22;5195;48.562;9.192;2023-10-08T00:25:17;19.30;34.60
10300;DHT22;5195;48.562;9.192;2023-10-08T00:27:52;19.20;35.00
10300;DHT22;5195;48.562;9.192;2023-10-08T00:30:29;18.90;36.00
10300;DHT22;5195;48.562;9.192;2023-10-08T00:33:04;18.80;35.70
10300;DHT22;5195;48.562;9.192;2023-10-08T00:35:40;19.00;35.90
10300;DHT22;5195;48.562;9.192;2023-10-08T00:38:15;19.00;35.40
10300;DHT22;5195;48.562;9.192;2023-10-08T00:40:51;18.70;35.20
10300;DHT22;5195;48.562;9.192;2023-10-08T00:43:33;18.60;35.10
10300;DHT22;5195;48.562;9.192;2023-10-08T00:46:09;18.40;35.10
10300;DHT22;5195;48.562;9.192;2023-10-08T00:48:45;18.00;35.30
10300;DHT22;5195;48.562;9.192;2023-10-08T00:51:24;18.10;35.70
10300;DHT22;5195;48.562;9.192;2023-10-08T00:54:02;18.00;35.60
10300;DHT22;5195;48.562;9.192;2023-10-08T00:56:40;18.10;35.70
10300;DHT22;5195;48.562;9.192;2023-10-08T00:59:19;18.00;35.60
10300;DHT22;5195;48.562;9.192;2023-10-08T01:01:55;17.70;35.80
10300;DHT22;5195;48.562;9.192;2023-10-08T01:04:30;17.50;36.00
10300;DHT22;5195;48.562;9.192;2023-10-08T01:07:06;17.70;36.00
10300;DHT22;5195;48.562;9.192;2023-10-08T01:09:48;18.00;35.60
10300;DHT22;5195;48.562;9.192;2023-10-08T01:12:26;18.30;35.60
10300;DHT22;5195;48.562;9.192;2023-10-08T01:15:08;18.10;35.40
10300;DHT22;5195;48.562;9.192;2023-10-08T01:17:55;18.00;35.90
10300;DHT22;5195;48.562;9.192;2023-10-08T01:20:34;17.70;36.30
10300;DHT22;5195;48.562;9.192;2023-10-08T01:23:10;17.70;36.20
10300;DHT22;5195;48.562;9.192;2023-10-08T01:25:45;17.40;36.40
10300;DHT22;5195;48.562;9.192;2023-10-08T01:28:21;17.60;36.90
10300;DHT22;5195;48.562;9.192;2023-10-08T01:31:03;17.90;35.90
10300;DHT22;5195;48.562;9.192;2023-10-08T01:33:38;18.20;35.40
10300;DHT22;5195;48.562;9.192;2023-10-08T01:36:14;18.40;35.10
10300;DHT22;5195;48.562;9.192;2023-10-08T01:38:50;18.30;35.10
10300;DHT22;5195;48.562;9.192;2023-10-08T01:41:26;18.30;35.00
10300;DHT22;5195;48.562;9.192;2023-10-08T01:44:05;18.30;35.90
10300;DHT22;5195;48.562;9.192;2023-10-08T01:46:40;18.00;35.90
10300;DHT22;5195;48.562;9.192;2023-10-08T01:49:16;18.00;36.30
10300;DHT22;5195;48.562;9.192;2023-10-08T01:51:51;18.10;36.60
10300;DHT22;5195;48.562;9.192;2023-10-08T01:54:27;17.90;36.50
10300;DHT22;5195;48.562;9.192;2023-10-08T01:57:04;17.50;36.80
10300;DHT22;5195;48.562;9.192;2023-10-08T01:59:40;17.30;37.80
10300;DHT22;5195;48.562;9.192;2023-10-08T02:02:16;17.30;37.70
10300;DHT22;5195;48.562;9.192;2023-10-08T02:04:51;17.20;37.60
10300;DHT22;5195;48.562;9.192;2023-10-08T02:07:27;16.90;37.80
10300;DHT22;5195;48.562;9.192;2023-10-08T02:10:03;16.70;38.10
10300;DHT22;5195;48.562;9.192;2023-10-08T02:12:39;16.60;38.40
10300;DHT22;5195;48.562;9.192;2023-10-08T02:15:14;16.80;38.80
10300;DHT22;5195;48.562;9.192;2023-10-08T02:17:50;17.20;38.30
10300;DHT22;5195;48.562;9.192;2023-10-08T02:20:26;17.60;37.30
10300;DHT22;5195;48.562;9.192;2023-10-08T02:23:01;17.80;36.90
10300;DHT22;5195;48.562;9.192;2023-10-08T02:25:38;17.70;37.40
10300;DHT22;5195;48.562;9.192;2023-10-08T02:28:13;17.70;37.30
10300;DHT22;5195;48.562;9.192;2023-10-08T02:30:49;17.90;37.40
10300;DHT22;5195;48.562;9.192;2023-10-08T02:33:28;18.00;37.40
10300;DHT22;5195;48.562;9.192;2023-10-08T02:36:03;18.10;37.70
10300;DHT22;5195;48.562;9.192;2023-10-08T02:38:39;17.80;37.50
10300;DHT22;5195;48.562;9.192;2023-10-08T02:41:18;17.40;37.70
10300;DHT22;5195;48.562;9.192;2023-10-08T02:43:53;17.50;38.20
10300;DHT22;5195;48.562;9.192;2023-10-08T02:46:29;17.70;38.20
10300;DHT22;5195;48.562;9.192;2023-10-08T02:49:05;18.00;37.50
10300;DHT22;5195;48.562;9.192;2023-10-08T02:51:43;18.10;37.90
10300;DHT22;5195;48.562;9.192;2023-10-08T02:54:20;18.20;36.50
10300;DHT22;5195;48.562;9.192;2023-10-08T02:57:00;18.20;35.40
10300;DHT22;5195;48.562;9.192;2023-10-08T02:59:37;18.20;35.60
10300;DHT22;5195;48.562;9.192;2023-10-08T03:02:18;18.20;35.80
10300;DHT22;5195;48.562;9.192;2023-10-08T03:04:54;18.30;35.20
10300;DHT22;5195;48.562;9.192;2023-10-08T03:07:30;17.90;35.10
10300;DHT22;5195;48.562;9.192;2023-10-08T03:10:10;17.90;35.10
10300;DHT22;5195;48.562;9.192;2023-10-08T03:12:56;17.40;36.50
10300;DHT22;5195;48.562;9.192;2023-10-08T03:15:31;17.30;36.40
10300;DHT22;5195;48.562;9.192;2023-10-08T03:18:07;17.50;37.20
10300;DHT22;5195;48.562;9.192;2023-10-08T03:20:46;17.20;37.30
10300;DHT22;5195;48.562;9.192;2023-10-08T03:23:21;17.10;37.20
10300;DHT22;5195;48.562;9.192;2023-10-08T03:26:02;16.80;37.50
10300;DHT22;5195;48.562;9.192;2023-10-08T03:28:37;16.80;37.50
10300;DHT22;5195;48.562;9.192;2023-10-08T03:31:13;16.60;37.80
10300;DHT22;5195;48.562;9.192;2023-10-08T03:33:50;17.30;37.20
10300;DHT22;5195;48.562;9.192;2023-10-08T03:36:25;17.20;37.10
10300;DHT22;5195;48.562;9.192;2023-10-08T03:39:04;17.20;37.10
10300;DHT22;5195;48.562;9.192;2023-10-08T03:41:41;16.80;37.70
10300;DHT22;5195;48.562;9.192;2023-10-08T03:44:16;16.70;37.80
10300;DHT22;5195;48.562;9.192;2023-10-08T03:46:52;17.00;38.10
10300;DHT22;5195;48.562;9.192;2023-10-08T03:49:27;17.00;38.00
10300;DHT22;5195;48.562;9.192;2023-10-08T03:52:03;16.80;38.20
10300;DHT22;5195;48.562;9.192;2023-10-08T03:54:39;16.80;38.00
10300;DHT22;5195;48.562;9.192;2023-10-08T03:57:15;16.80;38.00
10300;DHT22;5195;48.562;9.192;2023-10-08T03:59:50;17.20;37.30
10300;DHT22;5195;48.562;9.192;2023-10-08T04:02:26;17.10;37.30
10300;DHT22;5195;48.562;9.192;2023-10-08T04:05:08;16.90;37.80
10300;DHT22;5195;48.562;9.192;2023-10-08T04:07:53;17.10;39.10
10300;DHT22;5195;48.562;9.192;2023-10-08T04:10:36;17.10;37.90
10300;DHT22;5195;48.562;9.192;2023-10-08T04:13:18;17.10;37.90
10300;DHT22;5195;48.562;9.192;2023-10-08T04:15:53;17.00;37.80
10300;DHT22;5195;48.562;9.192;2023-10-08T04:18:29;17.10;38.30
10300;DHT22;5195;48.562;9.192;2023-10-08T04:21:07;17.10;37.30
10300;DHT22;5195;48.562;9.192;2023-10-08T04:23:44;17.10;36.90
10300;DHT22;5195;48.562;9.192;2023-10-08T04:26:19;17.40;36.60
10300;DHT22;5195;48.562;9.192;2023-10-08T04:28:58;17.30;36.80
10300;DHT22;5195;48.562;9.192;2023-10-08T04:31:33;17.30;37.80
10300;DHT22;5195;48.562;9.192;2023-10-08T04:34:12;17.50;38.50
10300;DHT22;5195;48.562;9.192;2023-10-08T04:36:51;17.40;38.30
10300;DHT22;5195;48.562;9.192;2023-10-08T04:39:27;17.00;38.50
10300;DHT22;5195;48.562;9.192;2023-10-08T04:42:03;16.80;38.90
10300;DHT22;5195;48.562;9.192;2023-10-08T04:44:45;16.50;39.00
10300;DHT22;5195;48.562;9.192;2023-10-08T04:47:21;16.30;39.10
10300;DHT22;5195;48.562;9.192;2023-10-08T04:49:56;16.20;39.30
10300;DHT22;5195;48.562;9.192;2023-10-08T04:52:32;16.50;39.70
10300;DHT22;5195;48.562;9.192;2023-10-08T04:55:08;16.80;39.00
10300;DHT22;5195;48.562;9.192;2023-10-08T04:57:44;16.80;39.10
10300;DHT22;5195;48.562;9.192;2023-10-08T05:00:45;16.50;39.20
10300;DHT22;5195;48.562;9.192;2023-10-08T05:03:51;16.30;39.60
10300;DHT22;5195;48.562;9.192;2023-10-08T05:06:42;16.60;40.90
10300;DHT22;5195;48.562;9.192;2023-10-08T05:09:34;17.00;39.70
10300;DHT22;5195;48.562;9.192;2023-10-08T05:12:46;16.80;39.40
10300;DHT22;5195;48.562;9.192;2023-10-08T05:15:41;16.90;39.60
10300;DHT22;5195;48.562;9.192;2023-10-08T05:18:17;16.70;39.50
10300;DHT22;5195;48.562;9.192;2023-10-08T05:20:53;16.40;39.70
10300;DHT22;5195;48.562;9.192;2023-10-08T05:23:34;16.20;40.00
10300;DHT22;5195;48.562;9.192;2023-10-08T05:26:10;16.40;40.40
10300;DHT22;5195;48.562;9.192;2023-10-08T05:28:46;16.80;40.10
10300;DHT22;5195;48.562;9.192;2023-10-08T05:31:38;16.70;39.80
10300;DHT22;5195;48.562;9.192;2023-10-08T05:34:20;16.80;39.80
10300;DHT22;5195;48.562;9.192;2023-10-08T05:36:59;16.70;39.80
10300;DHT22;5195;48.562;9.192;2023-10-08T05:39:34;16.70;39.90
10300;DHT22;5195;48.562;9.192;2023-10-08T05:42:19;16.90;39.40
10300;DHT22;5195;48.562;9.192;2023-10-08T05:44:55;17.10;39.80
10300;DHT22;5195;48.562;9.192;2023-10-08T05:47:41;17.20;38.90
10300;DHT22;5195;48.562;9.192;2023-10-08T05:50:16;17.30;38.80
10300;DHT22;5195;48.562;9.192;2023-10-08T05:52:52;17.00;38.80
10300;DHT22;5195;48.562;9.192;2023-10-08T05:55:34;16.60;39.30
10300;DHT22;5195;48.562;9.192;2023-10-08T05:58:09;16.70;39.70
10300;DHT22;5195;48.562;9.192;2023-10-08T06:00:48;16.90;39.40
10300;DHT22;5195;48.562;9.192;2023-10-08T06:03:43;17.10;39.30
10300;DHT22;5195;48.562;9.192;2023-10-08T06:06:22;16.90;39.30
10300;DHT22;5195;48.562;9.192;2023-10-08T06:08:57;16.90;40.10
10300;DHT22;5195;48.562;9.192;2023-10-08T06:11:48;17.20;40.50
10300;DHT22;5195;48.562;9.192;2023-10-08T06:14:32;17.00;40.40
10300;DHT22;5195;48.562;9.192;2023-10-08T06:17:18;16.70;40.80
10300;DHT22;5195;48.562;9.192;2023-10-08T06:20:01;17.20;41.40
10300;DHT22;5195;48.562;9.192;2023-10-08T06:22:36;17.10;41.30
10300;DHT22;5195;48.562;9.192;2023-10-08T06:25:11;17.40;41.20
10300;DHT22;5195;48.562;9.192;2023-10-08T06:27:54;17.60;40.90
10300;DHT22;5195;48.562;9.192;2023-10-08T06:30:29;17.70;40.80
10300;DHT22;5195;48.562;9.192;2023-10-08T06:33:05;17.90;40.50
10300;DHT22;5195;48.562;9.192;2023-10-08T06:35:42;17.40;40.70
10300;DHT22;5195;48.562;9.192;2023-10-08T06:38:20;17.40;40.70
10300;DHT22;5195;48.562;9.192;2023-10-08T06:40:59;17.50;39.90
10300;DHT22;5195;48.562;9.192;2023-10-08T06:43:35;17.90;39.30
10300;DHT22;5195;48.562;9.192;2023-10-08T06:46:11;18.10;38.90
10300;DHT22;5195;48.562;9.192;2023-10-08T06:48:47;18.00;38.80
10300;DHT22;5195;48.562;9.192;2023-10-08T06:51:22;18.40;39.20
10300;DHT22;5195;48.562;9.192;2023-10-08T06:53:59;18.30;38.70
10300;DHT22;5195;48.562;9.192;2023-10-08T06:56:35;18.40;39.80
10300;DHT22;5195;48.562;9.192;2023-10-08T06:59:10;18.60;40.50
10300;DHT22;5195;48.562;9.192;2023-10-08T07:01:47;18.30;40.40
10300;DHT22;5195;48.562;9.192;2023-10-08T07:04:23;18.10;40.60
10300;DHT22;5195;48.562;9.192;2023-10-08T07:06:59;18.00;40.90
10300;DHT22;5195;48.562;9.192;2023-10-08T07:09:35;18.00;40.80
10300;DHT22;5195;48.562;9.192;2023-10-08T07:12:11;18.00;40.80
10300;DHT22;5195;48.562;9.192;2023-10-08T07:14:46;18.00;40.80
10300;DHT22;5195;48.562;9.192;2023-10-08T07:17:22;18.10;40.90
10300;DHT22;5195;48.562;9.192;2023-10-08T07:19:58;18.60;41.10
10300;DHT22;5195;48.562;9.192;2023-10-08T07:22:33;19.20;39.80
10300;DHT22;5195;48.562;9.192;2023-10-08T07:25:09;19.40;39.40
10300;DHT22;5195;48.562;9.192;2023-10-08T07:27:44;19.40;39.40
10300;DHT22;5195;48.562;9.192;2023-10-08T07:30:20;19.40;39.60
10300;DHT22;5195;48.562;9.192;2023-10-08T07:32:56;19.60;39.90
10300;DHT22;5195;48.562;9.192;2023-10-08T07:35:31;19.70;39.60
10300;DHT22;5195;48.562;9.192;2023-10-08T07:38:07;20.00;38.70
10300;DHT22;5195;48.562;9.192;2023-10-08T07:40:42;20.20;38.50
10300;DHT22;5195;48.562;9.192;2023-10-08T07:43:19;20.60;38.00
10300;DHT22;5195;48.562;9.192;2023-10-08T07:45:55;20.80;37.40
10300;DHT22;5195;48.562;9.192;2023-10-08T07:48:31;20.70;37.50
10300;DHT22;5195;48.562;9.192;2023-10-08T07:51:06;21.10;36.90
10300;DHT22;5195;48.562;9.192;2023-10-08T07:53:43;21.50;36.20
10300;DHT22;5195;48.562;9.192;2023-10-08T07:56:20;22.10;35.70
10300;DHT22;5195;48.562;9.192;2023-10-08T07:58:55;22.10;35.00
10300;DHT22;5195;48.562;9.192;2023-10-08T08:01:31;22.30;34.60
10300;DHT22;5195;48.562;9.192;2023-10-08T08:04:11;22.60;34.50
10300;DHT22;5195;48.562;9.192;2023-10-08T08:06:47;22.50;34.40
10300;DHT22;5195;48.562;9.192;2023-10-08T08:09:22;22.60;34.10
10300;DHT22;5195;48.562;9.192;2023-10-08T08:11:58;22.40;34.60
10300;DHT22;5195;48.562;9.192;2023-10-08T08:14:34;22.40;34.60
10300;DHT22;5195;48.562;9.192;2023-10-08T08:17:09;22.50;34.30
10300;DHT22;5195;48.562;9.192;2023-10-08T08:19:51;22.30;34.40
10300;DHT22;5195;48.562;9.192;2023-10-08T08:22:27;22.00;34.90
10300;DHT22;5195;48.562;9.192;2023-10-08T09:40:24;26.30;31.80
10300;DHT22;5195;48.562;9.192;2023-10-08T09:42:51;26.00;31.70
10300;DHT22;5195;48.562;9.192;2023-10-08T09:45:16;26.00;31.70
10300;DHT22;5195;48.562;9.192;2023-10-08T09:47:48;26.00;32.10
10300;DHT22;5195;48.562;9.192;2023-10-08T09:50:10;26.00;32.00
10300;DHT22;5195;48.562;9.192;2023-10-08T09:52:42;26.10;32.30
10300;DHT22;5195;48.562;9.192;2023-10-08T09:55:09;26.40;31.40
10300;DHT22;5195;48.562;9.192;2023-10-08T09:57:34;26.60;31.50
10300;DHT22;5195;48.562;9.192;2023-10-08T10:00:00;26.60;31.70
10300;DHT22;5195;48.562;9.192;2023-10-08T10:02:25;26.70;32.10
10300;DHT22;5195;48.562;9.192;2023-10-08T10:04:51;26.80;32.00
10300;DHT22;5195;48.562;9.192;2023-10-08T10:07:16;26.80;31.70
10300;DHT22;5195;48.562;9.192;2023-10-08T10:09:42;27.10;30.50
10300;DHT22;5195;48.562;9.192;2023-10-08T10:12:08;27.30;30.70
10300;DHT22;5195;48.562;9.192;2023-10-08T10:14:42;27.30;30.40
10300;DHT22;5195;48.562;9.192;2023-10-08T10:17:25;27.30;30.40
10300;DHT22;5195;48.562;9.192;2023-10-08T10:22:27;27.00;30.40
10300;DHT22;5195;48.562;9.192;2023-10-08T10:24:52;27.10;29.90
10300;DHT22;5195;48.562;9.192;2023-10-08T10:27:19;27.30;30.60
10300;DHT22;5195;48.562;9.192;2023-10-08T10:29:45;27.50;30.40
10300;DHT22;5195;48.562;9.192;2023-10-08T10:32:11;27.70;29.80
10300;DHT22;5195;48.562;9.192;2023-10-08T10:34:38;27.60;29.80
10300;DHT22;5195;48.562;9.192;2023-10-08T10:37:11;27.30;30.00
10300;DHT22;5195;48.562;9.192;2023-10-08T10:39:35;27.10;30.40
10300;DHT22;5195;48.562;9.192;2023-10-08T10:42:03;27.10;29.90
10300;DHT22;5195;48.562;9.192;2023-10-08T10:44:29;27.10;30.00
10300;DHT22;5195;48.562;9.192;2023-10-08T10:46:58;27.30;30.00
10300;DHT22;5195;48.562;9.192;2023-10-08T10:49:43;27.50;30.00
10300;DHT22;5195;48.562;9.192;2023-10-08T10:52:22;27.80;29.70
10300;DHT22;5195;48.562;9.192;2023-10-08T10:55:04;27.80;29.70
10300;DHT22;5195;48.562;9.192;2023-10-08T10:57:42;27.70;29.90
10300;DHT22;5195;48.562;9.192;2023-10-08T11:00:08;27.90;29.70
10300;DHT22;5195;48.562;9.192;2023-10-08T11:02:53;28.10;29.60
10300;DHT22;5195;48.562;9.192;2023-10-08T11:05:19;28.30;29.70
10300;DHT22;5195;48.562;9.192;2023-10-08T11:07:48;28.70;29.20
10300;DHT22;5195;48.562;9.192;2023-10-08T11:10:14;29.00;28.70
10300;DHT22;5195;48.562;9.192;2023-10-08T11:12:39;29.30;28.10
10300;DHT22;5195;48.562;9.192;2023-10-08T11:15:05;29.40;27.90
10300;DHT22;5195;48.562;9.192;2023-10-08T11:17:34;29.60;27.90
10300;DHT22;5195;48.562;9.192;2023-10-08T11:19:59;29.60;28.10
10300;DHT22;5195;48.562;9.192;2023-10-08T11:22:40;29.30;28.30
10300;DHT22;5195;48.562;9.192;2023-10-08T11:24:50;29.00;28.30
10300;DHT22;5195;48.562;9.192;2023-10-08T11:27:21;29.00;27.90
10300;DHT22;5195;48.562;9.192;2023-10-08T11:29:58;29.30;28.20
10300;DHT22;5195;48.562;9.192;2023-10-08T11:32:27;29.20;27.60
10300;DHT22;5195;48.562;9.192;2023-10-08T11:34:57;29.20;27.80
10300;DHT22;5195;48.562;9.192;2023-10-08T11:37:29;29.30;27.90
10300;DHT22;5195;48.562;9.192;2023-10-08T11:39:54;29.10;28.00
10300;DHT22;5195;48.562;9.192;2023-10-08T11:42:20;29.10;28.80
10300;DHT22;5195;48.562;9.192;2023-10-08T11:44:49;28.90;28.70
10300;DHT22;5195;48.562;9.192;2023-10-08T11:47:15;28.70;28.80
10300;DHT22;5195;48.562;9.192;2023-10-08T11:49:40;28.50;29.10
10300;DHT22;5195;48.562;9.192;2023-10-08T11:52:18;28.50;29.30
10300;DHT22;5195;48.562;9.192;2023-10-08T11:54:49;28.60;29.50
10300;DHT22;5195;48.562;9.192;2023-10-08T11:57:15;28.60;29.40
10300;DHT22;5195;48.562;9.192;2023-10-08T11:59:40;28.80;29.20
10300;DHT22;5195;48.562;9.192;2023-10-08T12:02:06;28.70;29.20
10300;DHT22;5195;48.562;9.192;2023-10-08T12:04:31;28.50;29.50
10300;DHT22;5195;48.562;9.192;2023-10-08T12:06:58;28.40;29.70
10300;DHT22;5195;48.562;9.192;2023-10-08T12:09:23;28.40;29.70
10300;DHT22;5195;48.562;9.192;2023-10-08T12:11:49;28.20;29.90
10300;DHT22;5195;48.562;9.192;2023-10-08T12:14:15;28.10;30.10
10300;DHT22;5195;48.562;9.192;2023-10-08T12:16:41;28.10;30.10
10300;DHT22;5195;48.562;9.192;2023-10-08T12:19:06;28.30;30.00
10300;DHT22;5195;48.562;9.192;2023-10-08T12:21:32;28.30;30.00
10300;DHT22;5195;48.562;9.192;2023-10-08T12:23:58;28.30;30.40
10300;DHT22;5195;48.562;9.192;2023-10-08T12:26:23;28.20;30.40
10300;DHT22;5195;48.562;9.192;2023-10-08T12:28:49;28.00;30.20
10300;DHT22;5195;48.562;9.192;2023-10-08T12:31:18;28.10;30.50
10300;DHT22;5195;48.562;9.192;2023-10-08T12:33:41;28.10;30.30
10300;DHT22;5195;48.562;9.192;2023-10-08T12:36:07;28.00;30.40
10300;DHT22;5195;48.562;9.192;2023-10-08T12:38:36;28.10;30.50
10300;DHT22;5195;48.562;9.192;2023-10-08T12:41:02;28.10;30.30
10300;DHT22;5195;48.562;9.192;2023-10-08T12:43:27;28.00;30.30
10300;DHT22;5195;48.562;9.192;2023-10-08T12:45:53;28.00;31.10
10300;DHT22;5195;48.562;9.192;2023-10-08T12:48:22;28.10;30.70
10300;DHT22;5195;48.562;9.192;2023-10-08T12:50:47;28.00;30.60
10300;DHT22;5195;48.562;9.192;2023-10-08T12:53:13;28.00;30.60
10300;DHT22;5195;48.562;9.192;2023-10-08T12:55:38;28.20;30.10
10300;DHT22;5195;48.562;9.192;2023-10-08T12:58:04;28.30;30.20
10300;DHT22;5195;48.562;9.192;2023-10-08T13:00:29;28.20;30.10
10300;DHT22;5195;48.562;9.192;2023-10-08T13:02:55;27.90;30.30
10300;DHT22;5195;48.562;9.192;2023-10-08T13:05:21;27.60;30.60
10300;DHT22;5195;48.562;9.192;2023-10-08T13:07:48;27.60;31.60
10300;DHT22;5195;48.562;9.192;2023-10-08T13:10:14;27.80;32.10
10300;DHT22;5195;48.562;9.192;2023-10-08T13:12:40;27.90;31.80
10300;DHT22;5195;48.562;9.192;2023-10-08T13:15:06;27.90;31.90
10300;DHT22;5195;48.562;9.192;2023-10-08T13:17:32;28.10;31.20
10300;DHT22;5195;48.562;9.192;2023-10-08T13:19:58;28.00;31.10
10300;DHT22;5195;48.562;9.192;2023-10-08T13:22:24;27.70;31.90
10300;DHT22;5195;48.562;9.192;2023-10-08T13:24:50;27.70;31.50
10300;DHT22;5195;48.562;9.192;2023-10-08T13:27:15;27.80;31.50
10300;DHT22;5195;48.562;9.192;2023-10-08T13:29:41;28.00;31.20
10300;DHT22;5195;48.562;9.192;2023-10-08T13:32:07;28.20;30.60
10300;DHT22;5195;48.562;9.192;2023-10-08T13:34:32;28.10;30.60
10300;DHT22;5195;48.562;9.192;2023-10-08T13:36:58;28.10;30.30
10300;DHT22;5195;48.562;9.192;2023-10-08T13:39:23;28.00;30.30
10300;DHT22;5195;48.562;9.192;2023-10-08T13:41:50;27.80;30.50
10300;DHT22;5195;48.562;9.192;2023-10-08T13:44:17;27.80;30.90
10300;DHT22;5195;48.562;9.192;2023-10-08T13:46:42;27.70;30.90
10300;DHT22;5195;48.562;9.192;2023-10-08T13:49:15;27.60;30.90
10300;DHT22;5195;48.562;9.192;2023-10-08T13:51:40;27.70;31.80
10300;DHT22;5195;48.562;9.192;2023-10-08T13:54:06;27.70;31.70
10300;DHT22;5195;48.562;9.192;2023-10-08T13:56:36;27.80;31.30
10300;DHT22;5195;48.562;9.192;2023-10-08T13:59:02;27.70;30.60
10300;DHT22;5195;48.562;9.192;2023-10-08T14:01:40;28.00;30.80
10300;DHT22;5195;48.562;9.192;2023-10-08T14:04:05;28.00;30.80
10300;DHT22;5195;48.562;9.192;2023-10-08T14:06:34;28.00;30.80
10300;DHT22;5195;48.562;9.192;2023-10-08T14:09:00;27.90;30.70
10300;DHT22;5195;48.562;9.192;2023-10-08T14:11:26;27.90;30.70
10300;DHT22;5195;48.562;9.192;2023-10-08T14:13:52;27.90;31.50
10300;DHT22;5195;48.562;9.192;2023-10-08T14:16:21;28.10;30.80
10300;DHT22;5195;48.562;9.192;2023-10-08T14:18:50;28.20;30.50
10300;DHT22;5195;48.562;9.192;2023-10-08T14:21:15;28.30;30.20
10300;DHT22;5195;48.562;9.192;2023-10-08T14:23:41;28.20;30.40
10300;DHT22;5195;48.562;9.192;2023-10-08T14:26:10;28.00;30.70
10300;DHT22;5195;48.562;9.192;2023-10-08T14:28:36;27.70;31.30
10300;DHT22;5195;48.562;9.192;2023-10-08T14:31:08;27.70;31.30
10300;DHT22;5195;48.562;9.192;2023-10-08T14:33:33;27.90;31.10
10300;DHT22;5195;48.562;9.192;2023-10-08T14:35:59;28.10;30.40
10300;DHT22;5195;48.562;9.192;2023-10-08T14:38:44;27.90;30.10
10300;DHT22;5195;48.562;9.192;2023-10-08T14:41:30;27.90;29.70
10300;DHT22;5195;48.562;9.192;2023-10-08T14:44:15;27.70;29.70
10300;DHT22;5195;48.562;9.192;2023-10-08T14:46:41;27.70;29.50
10300;DHT22;5195;48.562;9.192;2023-10-08T14:49:06;27.70;29.80
10300;DHT22;5195;48.562;9.192;2023-10-08T14:51:32;27.40;29.90
10300;DHT22;5195;48.562;9.192;2023-10-08T14:53:57;27.20;30.00
10300;DHT22;5195;48.562;9.192;2023-10-08T14:56:23;27.00;30.00
10300;DHT22;5195;48.562;9.192;2023-10-08T14:58:49;26.80;30.10
10300;DHT22;5195;48.562;9.192;2023-10-08T15:01:16;26.90;29.80
10300;DHT22;5195;48.562;9.192;2023-10-08T15:03:41;26.90;29.80
10300;DHT22;5195;48.562;9.192;2023-10-08T15:06:07;27.00;29.80
10300;DHT22;5195;48.562;9.192;2023-10-08T15:08:34;27.20;29.60
10300;DHT22;5195;48.562;9.192;2023-10-08T15:10:59;27.40;29.70
10300;DHT22;5195;48.562;9.192;2023-10-08T15:13:25;27.70;29.30
10300;DHT22;5195;48.562;9.192;2023-10-08T15:15:51;27.50;29.10
10300;DHT22;5195;48.562;9.192;2023-10-08T15:18:16;27.50;29.30
10300;DHT22;5195;48.562;9.192;2023-10-08T15:20:42;27.60;29.40
10300;DHT22;5195;48.562;9.192;2023-10-08T15:23:08;27.50;29.50
10300;DHT22;5195;48.562;9.192;2023-10-08T15:25:33;27.20;29.80
10300;DHT22;5195;48.562;9.192;2023-10-08T15:27:59;26.80;30.00
10300;DHT22;5195;48.562;9.192;2023-10-08T15:30:24;26.90;30.30
10300;DHT22;5195;48.562;9.192;2023-10-08T15:32:50;27.00;30.00
10300;DHT22;5195;48.562;9.192;2023-10-08T15:35:16;27.20;29.80
10300;DHT22;5195;48.562;9.192;2023-10-08T15:37:42;26.90;29.80
10300;DHT22;5195;48.562;9.192;2023-10-08T15:40:08;26.70;29.80
10300;DHT22;5195;48.562;9.192;2023-10-08T15:42:34;26.70;29.80
10300;DHT22;5195;48.562;9.192;2023-10-08T15:44:59;26.70;30.10
10300;DHT22;5195;48.562;9.192;2023-10-08T15:47:25;26.80;30.00
10300;DHT22;5195;48.562;9.192;2023-10-08T15:49:52;26.60;30.00
10300;DHT22;5195;48.562;9.192;2023-10-08T15:52:16;26.60;30.30
10300;DHT22;5195;48.562;9.192;2023-10-08T15:54:42;26.40;30.40
10300;DHT22;5195;48.562;9.192;2023-10-08T15:57:07;26.40;30.80
10300;DHT22;5195;48.562;9.192;2023-10-08T15:59:33;26.30;30.80
10300;DHT22;5195;48.562;9.192;2023-10-08T16:01:59;26.30;31.40
10300;DHT22;5195;48.562;9.192;2023-10-08T16:04:24;26.20;31.30
10300;DHT22;5195;48.562;9.192;2023-10-08T16:06:50;26.30;31.80
10300;DHT22;5195;48.562;9.192;2023-10-08T16:09:15;26.20;31.60
10300;DHT22;5195;48.562;9.192;2023-10-08T16:11:41;26.00;31.70
10300;DHT22;5195;48.562;9.192;2023-10-08T16:14:06;25.80;32.00
10300;DHT22;5195;48.562;9.192;2023-10-08T16:16:33;25.50;33.00
10300;DHT22;5195;48.562;9.192;2023-10-08T16:19:00;25.50;32.60
10300;DHT22;5195;48.562;9.192;2023-10-08T16:21:26;25.40;32.90
10300;DHT22;5195;48.562;9.192;2023-10-08T16:23:51;25.20;33.00
10300;DHT22;5195;48.562;9.192;2023-10-08T16:26:17;25.40;33.30
10300;DHT22;5195;48.562;9.192;2023-10-08T16:28:47;25.70;33.40
10300;DHT22;5195;48.562;9.192;2023-10-08T16:31:13;25.90;33.20
10300;DHT22;5195;48.562;9.192;2023-10-08T16:33:38;26.00;33.20
10300;DHT22;5195;48.562;9.192;2023-10-08T16:36:04;26.10;32.90
10300;DHT22;5195;48.562;9.192;2023-10-08T16:38:30;26.10;33.20
10300;DHT22;5195;48.562;9.192;2023-10-08T16:40:59;25.90;33.10
10300;DHT22;5195;48.562;9.192;2023-10-08T16:43:24;25.50;33.60
10300;DHT22;5195;48.562;9.192;2023-10-08T16:45:50;25.40;34.60
10300;DHT22;5195;48.562;9.192;2023-10-08T16:48:15;25.50;34.00
10300;DHT22;5195;48.562;9.192;2023-10-08T16:50:41;25.20;34.00
10300;DHT22;5195;48.562;9.192;2023-10-08T16:53:08;24.50;35.00
10300;DHT22;5195;48.562;9.192;2023-10-08T16:55:33;24.40;35.00
10300;DHT22;5195;48.562;9.192;2023-10-08T16:58:00;24.10;35.40
10300;DHT22;5195;48.562;9.192;2023-10-08T17:00:26;23.80;35.90
10300;DHT22;5195;48.562;9.192;2023-10-08T17:02:52;23.90;37.50
10300;DHT22;5195;48.562;9.192;2023-10-08T17:08:37;23.50;37.10
10300;DHT22;5195;48.562;9.192;2023-10-08T17:11:02;23.60;38.10
10300;DHT22;5195;48.562;9.192;2023-10-08T17:13:28;23.40;37.60
10300;DHT22;5195;48.562;9.192;2023-10-08T17:15:54;23.10;37.70
10300;DHT22;5195;48.562;9.192;2023-10-08T17:18:19;23.10;38.60
10300;DHT22;5195;48.562;9.192;2023-10-08T17:23:56;23.40;38.30
10300;DHT22;5195;48.562;9.192;2023-10-08T17:26:22;23.00;39.00
10300;DHT22;5195;48.562;9.192;2023-10-08T17:28:48;23.00;39.00
10300;DHT22;5195;48.562;9.192;2023-10-08T17:31:14;22.50;38.90
10300;DHT22;5195;48.562;9.192;2023-10-08T17:33:40;22.40;38.80
10300;DHT22;5195;48.562;9.192;2023-10-08T17:36:05;22.20;39.10
10300;DHT22;5195;48.562;9.192;2023-10-08T17:38:31;21.90;39.40
10300;DHT22;5195;48.562;9.192;2023-10-08T17:40:57;21.60;39.90
10300;DHT22;5195;48.562;9.192;2023-10-08T17:43:23;21.50;39.80